Austin, TX (78769)

9:00 AM CDT on September 19, 2014 (GMT -0500)
Rosedale | Change Station
CLOSE
Current Station
Personal Weather Station
Location: Austin, TX
Elevation: 659 ft
Nearby Weather Stations
Active Advisory: Areal Flood Advisory Active Notice: Local Storm Report

Elev 659 ft 30.31 °N, 97.75 °W | Updated 12 seconds ago

Overcast
Overcast
74.3 °F
Feels Like 71 °F
N
0.0
Wind Variable Wind from NE
Gusts 0.9 mph

Today
High -- | Low -- °F
--% Chance of Precip.
Yesterday
High -- | Low -- °F
Precip. -- in
7:17 AM 7:31 PM
Waning Crescent, 19% visible
Pressure 29.90 in
Visibility 10.0 miles
Clouds Scattered Clouds 500 ft
Mostly Cloudy 1800 ft
Overcast 2800 ft
Heat Index 71 °F
Dew Point 73 °F
Humidity 97%
Rainfall 0.37 in
Snow Depth Not available.
UV 0 out of 12
Pollen 6.50 out of 12
Ozone Good
PM2.5 Good
Flu Activity Not available.
METAR KATT 191351Z AUTO VRB05KT 10SM SCT005 BKN018 OVC028 24/23 A2993 RMK AO2 SLP124 T02390228

More Conditions Fewer Conditions

Pressure 29.90 in
Visibility 10.0 miles
Clouds Scattered Clouds 500 ft
Mostly Cloudy 1800 ft
Overcast 2800 ft
Heat Index 71 °F
Dew Point 73 °F
Humidity 97%
Rainfall 0.37 in
Snow Depth Not available.
UV 0 out of 12
Pollen 6.50 out of 12
Ozone Good
PM2.5 Good
Flu Activity Not available.
METAR KATT 191351Z AUTO VRB05KT 10SM SCT005 BKN018 OVC028 24/23 A2993 RMK AO2 SLP124 T02390228

More Conditions Fewer Conditions

Nowcast | as of 8:46 am CDT on September 19, 2014

Scattered showers will continue to move east and taper off through 11 am. Rainfall will be spotty and average 1/10 to 1/2 inch... although some spots could receive up to 1 inch of rain. Drive cautiously as some low lying spots are flooded from rains over the past few days...and roads will be slick even where not flooded.

×

10-Day Weather Forecast

Almanac

Astronomy

Sep. 19, 2014 Rise Set
Actual Time 7:17 AM CDT 7:31 PM CDT
Civil Twilight 6:53 AM CDT 7:55 PM CDT
Nautical Twilight 6:25 AM CDT 8:23 PM CDT
Astronomical Twilight 5:57 AM CDT 8:51 PM CDT
Moon 3:18 AM CDT 4:48 PM CDT
Length of Visible Light 13h 01m
Length of Day
12h 13m
Tomorrow will be 1m 49s shorter.
Waning Crescent, 19% of the Moon is Illuminated
Today
Waning Crescent
Sep 24
New
Oct 1
First Quarter
Oct 8
Full
Oct 15
Last Quarter

Today's Extremes

State Highs State Lows

Community

WunderPhotos

Upload Photos

1,754,614 photos uploaded!

WunderBlogs® & News

Nearby

Air Quality

  Air Quality AQ Index Pollutant
Yesterday Good
OZONE
Yesterday Good
PM2.5
Current Good
PM2.5
Current Good
OZONE
Friday Good
OZONE
Friday Good
PM10
Saturday Good
OZONE
Saturday Good
PM10
Sunday Good
OZONE
Sunday Good
PM10

Snow Depth

Station Depth Elevation
No new snow has been reported.

Earthquake Activity

City Distance Mag. Time & Date
No recent earthquake activity has been reported nearby.
Minimum magnitude displayed is 2.5.

Coastal Water Temperatures

Place Temperature
No Stations Reporting

Nearby Weather Stations